createdAt,value
2018-09-15T00:00:39.870Z,78.68
2018-09-15T00:03:08.320Z,79.70
2018-09-15T00:05:36.755Z,79.83
2018-09-15T00:08:05.205Z,80.21
2018-09-15T00:10:33.637Z,79.48
2018-09-15T00:13:02.113Z,80.08
2018-09-15T00:15:30.889Z,79.63
2018-09-15T00:18:01.104Z,80.17
2018-09-15T00:20:29.539Z,80.10
2018-09-15T00:22:57.986Z,80.25
2018-09-15T00:25:26.441Z,81.02
2018-09-15T00:27:54.878Z,80.77
2018-09-15T00:30:23.297Z,81.30
2018-09-15T00:32:51.965Z,80.85
2018-09-15T00:35:21.088Z,80.84
2018-09-15T00:37:49.539Z,81.78
2018-09-15T00:40:17.950Z,81.96
2018-09-15T00:42:46.392Z,82.15
2018-09-15T00:45:14.890Z,81.63
2018-09-15T00:47:43.316Z,82.54
2018-09-15T00:50:11.763Z,81.94
2018-09-15T00:52:40.182Z,82.55
2018-09-15T00:55:08.621Z,81.79
2018-09-15T00:57:37.079Z,82.02
2018-09-15T01:00:07.108Z,82.27
2018-09-15T01:02:35.572Z,81.75
2018-09-15T01:05:04.440Z,82.56
2018-09-15T01:07:32.851Z,82.20
2018-09-15T01:10:01.327Z,83.41
2018-09-15T01:12:29.707Z,83.10
2018-09-15T01:14:58.279Z,83.60
2018-09-15T01:17:27.353Z,83.07
2018-09-15T01:19:55.841Z,82.67
2018-09-15T01:22:24.237Z,83.33
2018-09-15T01:24:52.676Z,83.29
2018-09-15T01:27:21.111Z,83.15
2018-09-15T01:29:49.539Z,83.56
2018-09-15T01:32:17.961Z,83.45
2018-09-15T01:34:46.384Z,83.46
2018-09-15T01:37:14.774Z,82.96
2018-09-15T01:39:43.682Z,83.02
2018-09-15T01:42:12.211Z,83.53
2018-09-15T01:44:40.612Z,83.15
2018-09-15T01:47:09.061Z,83.41
2018-09-15T01:49:37.517Z,84.20
2018-09-15T01:52:06.017Z,84.08
2018-09-15T01:54:34.448Z,83.80
2018-09-15T01:57:02.909Z,83.44
2018-09-15T01:59:31.348Z,82.82
2018-09-15T02:01:59.788Z,83.69
2018-09-15T02:04:28.176Z,83.64
2018-09-15T02:06:56.620Z,83.59
2018-09-15T02:09:25.067Z,83.12
2018-09-15T02:11:53.492Z,83.04
2018-09-15T02:14:21.905Z,83.23
2018-09-15T02:16:50.321Z,83.07
2018-09-15T02:19:19.464Z,83.50
2018-09-15T02:21:47.948Z,82.99
2018-09-15T02:24:16.380Z,82.91
2018-09-15T02:26:44.793Z,83.60
2018-09-15T02:29:13.164Z,83.02
2018-09-15T02:31:41.558Z,83.36
2018-09-15T02:34:10.567Z,82.27
2018-09-15T02:36:39.022Z,83.28
2018-09-15T02:39:09.194Z,83.74
2018-09-15T02:41:37.605Z,83.54
2018-09-15T02:44:06.042Z,83.16
2018-09-15T02:46:34.562Z,83.56
2018-09-15T02:49:02.971Z,83.99
2018-09-15T02:51:31.372Z,83.43
2018-09-15T02:53:59.804Z,83.63
2018-09-15T02:56:28.223Z,82.95
2018-09-15T02:58:56.624Z,83.63
2018-09-15T03:01:25.111Z,83.77
2018-09-15T03:03:53.523Z,83.56
2018-09-15T03:06:21.951Z,83.20
2018-09-15T03:08:50.363Z,83.38
2018-09-15T03:11:18.776Z,83.55
2018-09-15T03:13:47.181Z,83.98
2018-09-15T03:16:15.641Z,84.14
2018-09-15T03:18:44.076Z,83.97
2018-09-15T03:21:12.569Z,84.43
2018-09-15T03:23:41.756Z,83.48
2018-09-15T03:26:10.299Z,83.54
2018-09-15T03:28:38.759Z,83.98
2018-09-15T03:31:07.176Z,84.23
2018-09-15T03:33:35.658Z,84.07
2018-09-15T03:36:04.042Z,84.04
2018-09-15T03:38:32.416Z,84.41
2018-09-15T03:41:00.829Z,83.94
2018-09-15T03:43:29.250Z,83.48
2018-09-15T03:45:57.619Z,84.02
2018-09-15T03:48:26.394Z,83.86
2018-09-15T03:50:54.801Z,84.17
2018-09-15T03:53:23.195Z,83.53
2018-09-15T03:55:51.559Z,83.22
2018-09-15T03:58:19.988Z,84.00
2018-09-15T04:00:49.142Z,83.31
2018-09-15T04:03:17.897Z,83.85
2018-09-15T04:05:46.333Z,84.13
2018-09-15T04:08:14.762Z,83.97
2018-09-15T04:10:43.511Z,84.01
2018-09-15T04:13:11.920Z,84.09
2018-09-15T04:15:40.321Z,83.44
2018-09-15T04:18:08.972Z,84.29
2018-09-15T04:20:38.052Z,83.25
2018-09-15T04:23:06.533Z,83.69
2018-09-15T04:25:34.992Z,84.52
2018-09-15T04:28:03.420Z,84.32
2018-09-15T04:30:31.792Z,84.58
2018-09-15T04:33:00.226Z,84.43
2018-09-15T04:35:28.650Z,84.44
2018-09-15T04:37:57.069Z,84.74
2018-09-15T04:40:25.480Z,84.25
2018-09-15T04:42:53.876Z,84.15
2018-09-15T04:45:22.287Z,84.26
2018-09-15T04:47:50.903Z,84.83
2018-09-15T04:50:19.297Z,84.37
2018-09-15T04:52:47.993Z,84.18
2018-09-15T04:55:16.469Z,84.16
2018-09-15T04:57:44.875Z,84.69
2018-09-15T05:00:13.278Z,84.29
2018-09-15T05:02:41.663Z,84.41
2018-09-15T05:05:10.110Z,84.15
2018-09-15T05:07:38.567Z,84.59
2018-09-15T05:10:07.009Z,84.34
2018-09-15T05:12:35.493Z,84.93
2018-09-15T05:15:03.842Z,84.31
2018-09-15T05:17:32.249Z,84.52
2018-09-15T05:20:00.722Z,84.97
2018-09-15T05:22:29.080Z,84.56
2018-09-15T05:24:57.502Z,85.44
2018-09-15T05:27:25.908Z,84.55
2018-09-15T05:29:54.367Z,84.55
2018-09-15T05:32:22.784Z,85.03
2018-09-15T05:34:51.212Z,85.26
2018-09-15T05:37:19.587Z,85.25
2018-09-15T05:39:48.028Z,84.73
2018-09-15T05:42:16.397Z,85.23
2018-09-15T05:44:44.976Z,85.36
2018-09-15T05:47:13.454Z,85.28
2018-09-15T05:49:41.913Z,85.30
2018-09-15T05:52:10.280Z,85.48
2018-09-15T05:54:38.721Z,85.77
2018-09-15T05:57:07.120Z,85.68
2018-09-15T05:59:35.565Z,85.36
2018-09-15T06:02:03.981Z,85.95
2018-09-15T06:04:32.734Z,85.71
2018-09-15T06:07:01.115Z,86.09
2018-09-15T06:09:29.516Z,86.13
2018-09-15T06:11:57.954Z,85.31
2018-09-15T06:14:26.366Z,85.75
2018-09-15T06:16:54.760Z,85.04
2018-09-15T06:19:23.225Z,86.15
2018-09-15T06:21:51.644Z,85.83
2018-09-15T06:24:20.098Z,86.40
2018-09-15T06:26:48.582Z,85.50
2018-09-15T06:29:16.989Z,85.76
2018-09-15T06:31:45.481Z,86.18
2018-09-15T06:34:13.904Z,86.23
2018-09-15T06:36:42.298Z,85.22
2018-09-15T06:39:11.443Z,86.44
2018-09-15T06:41:40.080Z,86.69
2018-09-15T06:44:08.568Z,85.75
2018-09-15T06:46:36.971Z,85.74
2018-09-15T06:49:05.432Z,86.09
2018-09-15T06:51:34.445Z,85.48
2018-09-15T06:54:02.902Z,86.03
2018-09-15T06:56:31.313Z,86.27
2018-09-15T06:58:59.779Z,85.38
2018-09-15T07:01:28.269Z,85.32
2018-09-15T07:03:56.688Z,85.00
2018-09-15T07:06:25.123Z,84.72
2018-09-15T07:08:53.729Z,85.02
2018-09-15T07:11:22.162Z,85.13
2018-09-15T07:13:50.568Z,85.43
2018-09-15T07:16:19.040Z,85.44
2018-09-15T07:18:47.465Z,85.25
2018-09-15T07:21:15.962Z,85.41
2018-09-15T07:23:44.776Z,84.68
2018-09-15T07:26:13.633Z,85.18
2018-09-15T07:28:42.157Z,85.05
2018-09-15T07:31:11.007Z,84.79
2018-09-15T07:33:39.439Z,85.22
2018-09-15T07:36:08.648Z,83.31
2018-09-15T07:38:37.192Z,83.01
2018-09-15T07:41:05.664Z,83.22
2018-09-15T07:43:34.169Z,82.65
2018-09-15T07:46:02.619Z,82.97
2018-09-15T07:48:31.062Z,82.31
2018-09-15T07:50:59.464Z,82.54
2018-09-15T07:53:27.932Z,83.15
2018-09-15T07:55:56.318Z,82.21
2018-09-15T07:58:24.785Z,82.34
2018-09-15T08:00:53.270Z,82.25
2018-09-15T08:03:21.699Z,82.35
2018-09-15T08:05:50.165Z,82.37
2018-09-15T08:08:18.608Z,83.21
2018-09-15T08:10:47.029Z,83.06
2018-09-15T08:13:15.515Z,83.33
2018-09-15T08:15:43.928Z,82.94
2018-09-15T08:18:12.462Z,82.25
2018-09-15T08:20:40.890Z,82.71
2018-09-15T08:23:10.372Z,82.46
2018-09-15T08:25:38.888Z,81.68
2018-09-15T08:28:07.862Z,82.08
2018-09-15T08:30:36.283Z,81.49
2018-09-15T08:33:05.404Z,81.35
2018-09-15T08:35:34.604Z,81.39
2018-09-15T08:38:03.216Z,80.96
2018-09-15T08:40:31.668Z,82.00
2018-09-15T08:43:00.188Z,81.51
2018-09-15T08:45:29.000Z,82.64
2018-09-15T08:47:57.448Z,82.11
2018-09-15T08:50:25.898Z,82.25
2018-09-15T08:52:54.590Z,81.73
2018-09-15T08:55:23.005Z,80.99
2018-09-15T08:57:52.112Z,81.88
2018-09-15T09:00:20.540Z,81.82
2018-09-15T09:02:48.945Z,81.52
2018-09-15T09:05:17.366Z,81.54
2018-09-15T09:07:45.821Z,81.29
2018-09-15T09:10:14.321Z,81.85
2018-09-15T09:12:43.558Z,80.74
2018-09-15T09:15:12.023Z,81.81
2018-09-15T09:17:40.536Z,80.70
2018-09-15T09:20:08.944Z,80.06
2018-09-15T09:22:37.415Z,79.63
2018-09-15T09:25:05.908Z,80.09
2018-09-15T09:27:34.384Z,80.01
2018-09-15T09:30:02.813Z,80.03
2018-09-15T09:32:31.361Z,80.65
2018-09-15T09:34:59.855Z,80.35
2018-09-15T09:37:28.272Z,79.63
2018-09-15T09:39:56.741Z,80.33
2018-09-15T09:42:25.347Z,79.71
2018-09-15T09:44:53.833Z,79.14
2018-09-15T09:47:22.844Z,79.34
2018-09-15T09:49:51.298Z,77.58
2018-09-15T09:52:19.728Z,78.56
2018-09-15T09:54:48.191Z,78.30
2018-09-15T09:57:16.616Z,79.18
2018-09-15T09:59:45.444Z,79.00
2018-09-15T10:02:15.163Z,78.52
2018-09-15T10:04:43.607Z,79.30
2018-09-15T10:07:12.136Z,79.55
2018-09-15T10:09:40.450Z,79.16
2018-09-15T10:12:08.889Z,79.64
2018-09-15T10:14:37.346Z,78.33
2018-09-15T10:17:06.203Z,79.14
2018-09-15T10:19:34.621Z,78.49
2018-09-15T10:22:03.052Z,77.81
2018-09-15T10:24:31.481Z,78.29
2018-09-15T10:27:00.036Z,76.60
2018-09-15T10:29:28.709Z,75.52
2018-09-15T10:31:57.153Z,75.31
2018-09-15T10:34:25.830Z,73.95
2018-09-15T10:36:55.176Z,73.00
2018-09-15T10:39:23.608Z,73.89
2018-09-15T10:41:52.077Z,74.15
2018-09-15T10:44:20.489Z,73.76
2018-09-15T10:46:48.943Z,72.67
2018-09-15T10:49:17.397Z,73.00
2018-09-15T10:51:45.849Z,70.79
2018-09-15T10:54:14.265Z,69.60
2018-09-15T10:56:42.705Z,67.11
2018-09-15T10:59:11.129Z,66.35
2018-09-15T11:01:39.552Z,66.50
2018-09-15T11:04:08.021Z,63.93
2018-09-15T11:06:36.448Z,64.77
2018-09-15T11:09:07.460Z,65.43
2018-09-15T11:11:35.886Z,63.86
2018-09-15T11:14:04.335Z,64.13
2018-09-15T11:16:32.736Z,63.90
2018-09-15T11:19:02.114Z,64.33
2018-09-15T11:21:30.550Z,63.89
2018-09-15T11:23:59.021Z,64.53
2018-09-15T11:26:27.881Z,62.95
2018-09-15T11:28:56.369Z,62.30
2018-09-15T11:31:24.809Z,62.53
2018-09-15T11:33:54.557Z,62.29
2018-09-15T11:36:23.027Z,64.24
2018-09-15T11:38:51.523Z,64.92
2018-09-15T11:41:19.997Z,63.42
2018-09-15T11:43:48.443Z,63.53
2018-09-15T11:46:17.269Z,62.88
2018-09-15T11:48:45.677Z,62.41
2018-09-15T11:51:14.192Z,61.77
2018-09-15T11:53:42.677Z,61.28
2018-09-15T11:56:11.082Z,61.98
2018-09-15T11:58:39.542Z,61.78
2018-09-15T12:01:08.058Z,61.47
2018-09-15T12:03:36.508Z,61.38
2018-09-15T12:06:04.988Z,61.63
2018-09-15T12:08:33.424Z,61.76
2018-09-15T12:11:01.896Z,59.80
2018-09-15T12:13:30.284Z,60.34
2018-09-15T12:15:58.669Z,59.10
2018-09-15T12:18:27.972Z,59.00
2018-09-15T12:20:56.380Z,57.31
2018-09-15T12:23:24.816Z,58.93
2018-09-15T12:25:53.221Z,57.83
2018-09-15T12:28:21.889Z,58.03
2018-09-15T12:30:50.253Z,59.37
2018-09-15T12:33:18.704Z,59.51
2018-09-15T12:35:47.078Z,59.22
2018-09-15T12:38:15.488Z,58.86
2018-09-15T12:40:44.679Z,59.26
2018-09-15T12:43:13.106Z,59.19
2018-09-15T12:45:41.553Z,59.78
2018-09-15T12:48:09.990Z,60.10
2018-09-15T12:50:38.488Z,59.39
2018-09-15T12:53:06.904Z,60.22
2018-09-15T12:55:35.316Z,60.11
2018-09-15T12:58:03.805Z,59.02
2018-09-15T13:00:32.213Z,57.42
2018-09-15T13:03:00.639Z,58.40
2018-09-15T13:05:29.093Z,59.37
2018-09-15T13:07:57.555Z,58.44
2018-09-15T13:10:25.977Z,57.13
2018-09-15T13:12:54.372Z,57.50
2018-09-15T13:15:22.805Z,57.03
2018-09-15T13:17:51.165Z,58.17
2018-09-15T13:20:19.584Z,59.10
2018-09-15T13:22:49.364Z,59.93
2018-09-15T13:25:17.831Z,58.11
2018-09-15T13:27:46.261Z,58.48
2018-09-15T13:30:14.730Z,59.00
2018-09-15T13:32:43.138Z,57.30
2018-09-15T13:35:11.997Z,57.97
2018-09-15T13:37:40.417Z,59.40
2018-09-15T13:40:08.870Z,59.89
2018-09-15T13:42:37.304Z,59.96
2018-09-15T13:45:05.796Z,59.51
2018-09-15T13:47:34.328Z,60.71
2018-09-15T13:50:02.749Z,60.80
2018-09-15T13:52:32.128Z,59.98
2018-09-15T13:55:00.571Z,60.82
2018-09-15T13:57:29.025Z,60.82
2018-09-15T13:59:57.519Z,60.63
2018-09-15T14:02:25.928Z,60.40
2018-09-15T14:04:54.395Z,59.35
2018-09-15T14:07:22.801Z,59.59
2018-09-15T14:09:51.210Z,60.28
2018-09-15T14:12:19.615Z,59.41
2018-09-15T14:14:47.985Z,60.11
2018-09-15T14:17:16.451Z,60.10
2018-09-15T14:19:44.905Z,60.23
2018-09-15T14:22:13.347Z,60.53
2018-09-15T14:24:41.803Z,60.01
2018-09-15T14:27:10.216Z,58.75
2018-09-15T14:29:38.666Z,58.58
2018-09-15T14:32:07.110Z,58.38
2018-09-15T14:34:35.583Z,58.51
2018-09-15T14:37:04.007Z,58.72
2018-09-15T14:39:32.433Z,57.67
2018-09-15T14:42:00.896Z,58.42
2018-09-15T14:44:29.340Z,59.00
2018-09-15T14:46:57.745Z,60.74
2018-09-15T14:49:26.174Z,61.13
2018-09-15T14:51:54.617Z,60.18
2018-09-15T14:54:23.020Z,58.27
2018-09-15T14:56:51.423Z,56.73
2018-09-15T14:59:19.826Z,56.19
2018-09-15T15:01:48.377Z,55.49
2018-09-15T15:04:16.809Z,55.04
2018-09-15T15:06:45.181Z,53.37
2018-09-15T15:09:13.633Z,54.33
2018-09-15T15:11:43.027Z,54.25
2018-09-15T15:14:11.479Z,53.04
2018-09-15T15:16:39.926Z,53.87
2018-09-15T15:19:09.147Z,54.26
2018-09-15T15:21:37.569Z,53.26
2018-09-15T15:24:06.024Z,53.49
2018-09-15T15:26:34.599Z,53.34
2018-09-15T15:29:03.022Z,54.42
2018-09-15T15:31:31.516Z,54.69
2018-09-15T15:33:59.904Z,55.23
2018-09-15T15:36:28.369Z,55.13
2018-09-15T15:38:56.823Z,56.08
2018-09-15T15:41:25.766Z,55.86
2018-09-15T15:43:54.238Z,55.99
2018-09-15T15:46:22.740Z,56.67
2018-09-15T15:48:51.141Z,55.69
2018-09-15T15:51:19.674Z,56.77
2018-09-15T15:53:48.057Z,57.14
2018-09-15T15:56:16.552Z,57.02
2018-09-15T15:58:45.242Z,56.35
2018-09-15T16:01:13.509Z,58.27
2018-09-15T16:03:41.909Z,58.20
2018-09-15T16:06:10.393Z,58.37
2018-09-15T16:08:38.803Z,59.10
2018-09-15T16:11:07.244Z,59.23
2018-09-15T16:13:35.680Z,60.16
2018-09-15T16:16:04.097Z,59.16
2018-09-15T16:18:32.496Z,59.38
2018-09-15T16:21:00.945Z,58.98
2018-09-15T16:23:29.419Z,59.22
2018-09-15T16:25:57.914Z,59.28
2018-09-15T16:28:27.302Z,60.19
2018-09-15T16:30:55.737Z,60.21
2018-09-15T16:33:24.165Z,60.09
2018-09-15T16:35:52.630Z,58.27
2018-09-15T16:38:21.115Z,58.32
2018-09-15T16:40:49.581Z,59.47
2018-09-15T16:43:18.468Z,58.98
2018-09-15T16:45:47.878Z,59.66
2018-09-15T16:48:16.270Z,59.58
2018-09-15T16:50:44.680Z,60.32
2018-09-15T16:53:13.090Z,60.06
2018-09-15T16:55:41.541Z,60.09
2018-09-15T16:58:09.963Z,61.06
2018-09-15T17:00:38.524Z,60.75
2018-09-15T17:03:07.045Z,61.00
2018-09-15T17:05:35.462Z,62.64
2018-09-15T17:08:03.954Z,63.92
2018-09-15T17:10:32.483Z,62.10
2018-09-15T17:13:00.939Z,64.04
2018-09-15T17:15:29.390Z,65.70
2018-09-15T17:17:57.744Z,66.76
2018-09-15T17:20:26.162Z,68.14
2018-09-15T17:22:54.671Z,69.26
2018-09-15T17:25:23.091Z,69.08
2018-09-15T17:27:51.509Z,69.31
2018-09-15T17:30:19.967Z,70.03
2018-09-15T17:32:48.381Z,70.38
2018-09-15T17:35:16.813Z,71.53
2018-09-15T17:37:45.232Z,72.40
2018-09-15T17:40:13.662Z,72.21
2018-09-15T17:42:42.068Z,73.54
2018-09-15T17:45:10.486Z,73.87
2018-09-15T17:47:38.962Z,73.81
2018-09-15T17:50:07.460Z,74.52
2018-09-15T17:52:35.944Z,74.69
2018-09-15T17:55:04.357Z,75.02
2018-09-15T17:57:32.804Z,74.85
2018-09-15T18:00:01.236Z,74.76
2018-09-15T18:02:29.767Z,75.36
2018-09-15T18:04:58.250Z,75.35
2018-09-15T18:07:26.726Z,75.42
2018-09-15T18:09:55.185Z,75.90
2018-09-15T18:12:23.600Z,76.28
2018-09-15T18:14:52.099Z,75.92
2018-09-15T18:17:21.102Z,75.53
2018-09-15T18:19:49.548Z,75.71
2018-09-15T18:22:17.944Z,77.46
2018-09-15T18:24:46.370Z,77.48
2018-09-15T18:27:14.850Z,78.20
2018-09-15T18:29:43.250Z,78.63
2018-09-15T18:32:11.724Z,78.11
2018-09-15T18:34:40.239Z,78.94
2018-09-15T18:37:08.653Z,78.29
2018-09-15T18:39:37.121Z,78.74
2018-09-15T18:42:05.621Z,79.29
2018-09-15T18:44:34.091Z,79.17
2018-09-15T18:47:02.495Z,78.45
2018-09-15T18:49:30.996Z,78.97
2018-09-15T18:51:59.457Z,78.61
2018-09-15T18:54:27.921Z,79.81
2018-09-15T18:56:56.353Z,78.51
2018-09-15T18:59:24.849Z,79.92
2018-09-15T19:01:53.326Z,80.24
2018-09-15T19:04:21.777Z,79.85
2018-09-15T19:06:50.285Z,80.09
2018-09-15T19:09:18.710Z,80.27
2018-09-15T19:11:47.189Z,80.66
2018-09-15T19:14:15.691Z,80.80
2018-09-15T19:16:44.021Z,80.91
2018-09-15T19:19:12.420Z,80.66
2018-09-15T19:21:40.859Z,80.01
2018-09-15T19:24:09.305Z,80.62
2018-09-15T19:26:37.746Z,80.52
2018-09-15T19:29:06.255Z,80.47
2018-09-15T19:31:34.756Z,80.70
2018-09-15T19:34:03.280Z,80.32
2018-09-15T19:36:31.770Z,80.33
2018-09-15T19:39:00.179Z,80.92
2018-09-15T19:41:28.671Z,81.14
2018-09-15T19:43:57.118Z,81.29
2018-09-15T19:46:25.564Z,81.68
2018-09-15T19:48:53.986Z,82.01
2018-09-15T19:51:22.466Z,80.75
2018-09-15T19:53:50.868Z,81.19
2018-09-15T19:56:19.315Z,81.71
2018-09-15T19:58:47.940Z,81.99
2018-09-15T20:01:16.483Z,81.77
2018-09-15T20:03:44.924Z,82.11
2018-09-15T20:06:13.488Z,81.83
2018-09-15T20:08:41.886Z,82.40
2018-09-15T20:11:10.354Z,81.44
2018-09-15T20:13:38.805Z,82.15
2018-09-15T20:16:06.025Z,82.15
2018-09-15T20:18:33.260Z,81.59
2018-09-15T20:21:00.455Z,81.80
2018-09-15T20:23:28.832Z,82.49
2018-09-15T20:25:57.212Z,81.82
2018-09-15T20:28:25.722Z,81.49
2018-09-15T20:30:54.180Z,82.11
2018-09-15T20:33:22.641Z,81.36
2018-09-15T20:35:50.977Z,81.73
2018-09-15T20:38:19.428Z,82.20
2018-09-15T20:40:47.908Z,82.70
2018-09-15T20:43:16.309Z,83.13
2018-09-15T20:45:44.758Z,82.88
2018-09-15T20:48:13.189Z,82.00
2018-09-15T20:50:41.619Z,83.00
2018-09-15T20:53:10.039Z,81.82
2018-09-15T20:55:38.468Z,82.41
2018-09-15T20:58:06.825Z,82.24
2018-09-15T21:00:36.124Z,83.10
2018-09-15T21:03:04.610Z,82.40
2018-09-15T21:05:33.039Z,83.28
2018-09-15T21:08:01.448Z,82.45
2018-09-15T21:10:30.259Z,82.30
2018-09-15T21:12:58.675Z,83.15
2018-09-15T21:15:27.091Z,83.36
2018-09-15T21:17:55.829Z,82.72
2018-09-15T21:20:24.248Z,83.14
2018-09-15T21:22:52.714Z,83.34
2018-09-15T21:25:21.148Z,83.24
2018-09-15T21:27:49.614Z,83.21
2018-09-15T21:30:18.105Z,83.26
2018-09-15T21:32:46.557Z,83.32
2018-09-15T21:35:15.036Z,83.41
2018-09-15T21:37:43.460Z,83.24
2018-09-15T21:40:11.832Z,82.99
2018-09-15T21:42:40.323Z,83.21
2018-09-15T21:45:08.795Z,83.02
2018-09-15T21:47:37.209Z,83.67
2018-09-15T21:50:05.806Z,83.52
2018-09-15T21:52:34.240Z,82.91
2018-09-15T21:55:02.705Z,83.95
2018-09-15T21:57:31.143Z,83.98
2018-09-15T21:59:59.609Z,84.64
2018-09-15T22:02:28.104Z,84.37
2018-09-15T22:04:56.677Z,84.54
2018-09-15T22:07:25.052Z,83.75
2018-09-15T22:09:53.484Z,83.66
2018-09-15T22:12:22.053Z,84.01
2018-09-15T22:14:51.148Z,84.07
2018-09-15T22:17:19.668Z,83.68
2018-09-15T22:19:48.289Z,83.33
2018-09-15T22:22:16.945Z,84.26
2018-09-15T22:24:45.249Z,84.25
2018-09-15T22:27:13.767Z,84.11
2018-09-15T22:29:42.188Z,83.87
2018-09-15T22:32:10.735Z,83.25
2018-09-15T22:34:39.168Z,84.42
2018-09-15T22:37:07.650Z,83.68
2018-09-15T22:39:36.050Z,84.69
2018-09-15T22:42:04.533Z,83.88
2018-09-15T22:44:32.946Z,84.44
2018-09-15T22:47:01.419Z,84.09
2018-09-15T22:49:30.397Z,84.60
2018-09-15T22:51:58.867Z,83.69
2018-09-15T22:54:27.445Z,84.49
2018-09-15T22:56:55.841Z,83.88
2018-09-15T22:59:24.365Z,84.28
2018-09-15T23:01:52.786Z,84.61
2018-09-15T23:04:22.152Z,84.48
2018-09-15T23:06:50.579Z,85.17
2018-09-15T23:09:19.053Z,84.71
2018-09-15T23:11:47.444Z,84.78
2018-09-15T23:14:15.858Z,85.01
2018-09-15T23:16:44.297Z,84.49
2018-09-15T23:19:12.839Z,84.32
2018-09-15T23:21:41.225Z,84.40
2018-09-15T23:24:09.714Z,84.15
2018-09-15T23:26:38.104Z,84.09
2018-09-15T23:29:06.595Z,84.70
2018-09-15T23:31:35.040Z,84.65
2018-09-15T23:34:04.119Z,84.64
2018-09-15T23:36:32.698Z,84.67
2018-09-15T23:39:01.132Z,84.87
2018-09-15T23:41:29.644Z,85.08
2018-09-15T23:43:58.052Z,84.76
2018-09-15T23:46:26.448Z,84.33
2018-09-15T23:48:54.887Z,85.24
2018-09-15T23:51:23.308Z,84.81
2018-09-15T23:53:51.691Z,85.33
2018-09-15T23:56:20.351Z,84.80
2018-09-15T23:58:48.752Z,85.11
